Costa Luminosa — ICGU — position and weather

sailwx.info

Track history (hours):
 
Tides and Currents Weather Stations Pressure Air Temp Water Temp Dewpoint Dewpoint Depression Visibility Wind Speed Wind Dir Waves Ship Positions

Costa Luminosa

Last reported at 2014-Jul-24 16:33 UTC. Time now 2014-Jul-24 16:57 UTC.
Position N 59°26' E 022°23'.

Length 294 m; draft 8.1 m.

Type: Passenger vessel. MMSI: 247257900.

Date/timePositionNaut miles runAvg speedWind from/ knotsBaromVisibWave heightAir tempDewpointWater temp
2014-Jul-24 16:33N 59°26' E 022°23'1818.3
2014-Jul-24 15:33N 59°34' E 022°56'1918.9
2014-Jul-24 14:33N 59°39' E 023°32'1918.8
2014-Jul-24 13:33N 59°44' E 024°07'2020.0
2014-Jul-24 12:33N 59°51' E 024°45'1514.8
2014-Jul-24 11:33N 60°05' E 024°54'4 3.5
2014-Jul-24 10:32N 60°09' E 024°55'0 0.0
2014-Jul-24 09:32N 60°09' E 024°55'0 0.0
2014-Jul-24 08:32N 60°09' E 024°55'0 0.0
2014-Jul-24 07:32N 60°09' E 024°55'0 0.0
2014-Jul-24 06:32N 60°09' E 024°55'0 0.0
2014-Jul-24 05:32N 60°09' E 024°55'0 0.0
2014-Jul-24 04:32N 60°09' E 024°55'5 5.4
2014-Jul-24 03:33N 60°04' E 024°53'1313.5
2014-Jul-24 02:34N 59°56' E 025°16'1817.5
2014-Jul-24 01:33N 59°55' E 025°51'1817.8
2014-Jul-24 00:34N 59°60' E 026°25'1414.1
2014-Jul-23 23:34N 59°60' E 026°53'1413.4
2014-Jul-23 22:33N 60°04' E 027°19'8311.9
2014-Jul-23 15:33N 59°56' E 030°05'3 3.1
2014-Jul-23 14:31N 59°57' E 030°11'0 0.0
2014-Jul-23 13:31N 59°57' E 030°11'0 0.0
2014-Jul-23 12:31N 59°57' E 030°11'0 0.0
2014-Jul-23 11:31N 59°57' E 030°11'0 0.0
2014-Jul-23 10:31N 59°57' E 030°11'0 0.0
2014-Jul-23 09:31N 59°57' E 030°11'0 0.0
2014-Jul-23 08:31N 59°57' E 030°11'0 0.0
2014-Jul-23 07:31N 59°57' E 030°11'0 0.0
2014-Jul-23 06:31N 59°57' E 030°11'0 0.0
2014-Jul-23 05:33N 59°57' E 030°11'0 0.0
2014-Jul-23 04:31N 59°57' E 030°11'0 0.0
2014-Jul-23 03:31N 59°57' E 030°11'0 0.1
2014-Jul-23 02:33N 59°57' E 030°11'7 7.3
2014-Jul-23 01:33N 59°56' E 029°57'7414.8
2014-Jul-22 20:33N 60°06' E 027°30'1616.2
2014-Jul-22 19:34N 59°58' E 027°02'1616.4
2014-Jul-22 18:33N 59°58' E 026°29'1816.8
2014-Jul-22 17:29N 59°53' E 025°55'1816.5
2014-Jul-22 16:25N 59°49' E 025°20'1416.2
2014-Jul-22 15:33N 59°45' E 024°54'1414.0
2014-Jul-22 14:33N 59°32' E 024°44'4 0.7
2014-Jul-22 08:18N 59°27' E 024°46'8 8.6
2014-Jul-22 07:22N 59°30' E 024°30'1214.7
2014-Jul-22 06:33N 59°30' E 024°07'1616.4
2014-Jul-22 05:33N 59°29' E 023°35'1616.2
2014-Jul-22 04:33N 59°29' E 023°03'5014.8
2014-Jul-22 01:12N 59°24' E 021°26'4214.5
2014-Jul-21 22:16N 59°33' E 020°04'18 0.9
2014-Jul-21 01:22N 59°48' E 019°45'1619.0
2014-Jul-21 00:30N 59°36' E 020°08'1819.5
2014-Jul-20 23:33N 59°18' E 020°00'9421.1
2014-Jul-20 19:05N 57°60' E 018°19'1220.9
2014-Jul-20 18:31N 57°49' E 018°09'2021.0
2014-Jul-20 17:33N 57°31' E 017°52'2120.7
2014-Jul-20 16:33N 57°12' E 017°38'2121.2
2014-Jul-20 15:33N 56°52' E 017°23'2121.3
2014-Jul-20 14:33N 56°33' E 017°10'2120.9
2014-Jul-20 13:33N 56°13' E 016°56'1919.3
2014-Jul-20 12:33N 55°59' E 016°33'2020.3
2014-Jul-20 11:33N 55°49' E 016°02'2020.4
2014-Jul-20 10:34N 55°39' E 015°30'2020.3
2014-Jul-20 09:34N 55°28' E 014°60'2020.0
2014-Jul-20 08:33N 55°18' E 014°30'2020.4
2014-Jul-20 07:33N 55°02' E 014°07'2020.2
2014-Jul-20 06:33N 54°55' E 013°33'2020.0
2014-Jul-20 05:33N 54°49' E 013°01'1919.1
2014-Jul-20 04:33N 54°41' E 012°30'1818.5
2014-Jul-20 03:33N 54°26' E 012°11'1818.4
2014-Jul-20 02:33N 54°27' E 011°39'1919.2
2014-Jul-20 01:33N 54°35' E 011°10'1616.5
2014-Jul-20 00:33N 54°48' E 010°52'1817.5
2014-Jul-19 23:33N 55°05' E 011°02'1717.4
2014-Jul-19 22:33N 55°22' E 011°02'1818.3
2014-Jul-19 21:33N 55°38' E 010°46'2518.1
2014-Jul-19 20:10N 56°02' E 011°04'1117.5
2014-Jul-19 19:33N 56°07' E 011°21'2020.0
2014-Jul-19 18:34N 56°10' E 011°56'1919.2
2014-Jul-19 17:33N 56°08' E 012°30'1818.1
2014-Jul-19 16:33N 55°52' E 012°45'10 9.6
2014-Jul-19 15:32N 55°43' E 012°37'0 0.0
2014-Jul-19 14:32N 55°43' E 012°37'0 0.0
2014-Jul-19 13:31N 55°43' E 012°37'0 0.0
2014-Jul-19 12:31N 55°43' E 012°37'0 0.0
2014-Jul-19 11:32N 55°43' E 012°37'0 0.0
2014-Jul-19 10:32N 55°43' E 012°37'0 0.0
2014-Jul-19 09:31N 55°43' E 012°37'0 0.0
2014-Jul-19 08:32N 55°43' E 012°37'0 0.0
2014-Jul-19 07:32N 55°43' E 012°37'0 0.0
2014-Jul-19 06:32N 55°43' E 012°37'3 2.8
2014-Jul-19 05:34N 55°45' E 012°41'1110.7
2014-Jul-19 04:33N 55°55' E 012°38'1110.8
2014-Jul-19 03:34N 56°06' E 012°33'1312.6
2014-Jul-19 02:33N 56°13' E 012°15'1312.5
2014-Jul-19 01:33N 56°23' E 012°01'1313.1
2014-Jul-19 00:33N 56°36' E 011°56'1413.6
2014-Jul-18 23:33N 56°49' E 011°49'1515.1
2014-Jul-18 22:33N 57°03' E 011°40'1616.4
2014-Jul-18 21:34N 57°19' E 011°30'1616.4
2014-Jul-18 20:34N 57°34' E 011°18'1716.7
2014-Jul-18 19:34N 57°49' E 011°06'1716.8
2014-Jul-18 18:34N 58°05' E 010°54'1716.1
2014-Jul-18 17:31N 58°20' E 010°43'1716.1
2014-Jul-18 16:28N 58°37' E 010°36'3014.5
2014-Jul-18 14:23N 59°07' E 010°35'1416.7
2014-Jul-18 13:33N 59°21' E 010°35'3215.6
2014-Jul-18 11:31N 59°52' E 010°39'3 2.7
2014-Jul-18 10:25N 59°54' E 010°43'0 0.0
2014-Jul-18 09:25N 59°54' E 010°43'0 0.0
2014-Jul-18 08:25N 59°54' E 010°43'0 0.0
2014-Jul-18 07:31N 59°54' E 010°43'0 0.0
2014-Jul-18 06:31N 59°54' E 010°43'1 0.6
2014-Jul-18 05:33N 59°54' E 010°42'2211.2
2014-Jul-18 03:33N 59°32' E 010°36'1717.2
2014-Jul-18 02:33N 59°14' E 010°37'1313.1
2014-Jul-18 01:33N 59°01' E 010°34'1212.2
2014-Jul-18 00:33N 58°52' E 010°18'1412.5
2014-Jul-17 23:27N 58°43' E 009°58'3812.8
2014-Jul-17 20:31N 58°20' E 009°02'1212.5
2014-Jul-17 19:33N 58°12' E 008°44'1312.7
2014-Jul-17 18:33N 58°04' E 008°25'11 1.2
2014-Jul-17 09:33N 58°04' E 008°05'1513.5
2014-Jul-17 08:29N 57°57' E 007°41'4013.6
2014-Jul-17 05:33N 58°03' E 006°26'1615.8
2014-Jul-17 04:33N 58°13' E 006°04'1615.7
2014-Jul-17 03:33N 58°24' E 005°42'1615.8
2014-Jul-17 02:33N 58°37' E 005°24'1615.7
2014-Jul-17 01:34N 58°51' E 005°10'1615.5
2014-Jul-17 00:33N 59°04' E 004°53'8510.2
2014-Jul-16 16:10N 60°29' E 004°59'812.8
2014-Jul-16 15:33N 60°23' E 005°10'4 4.2
2014-Jul-16 14:29N 60°24' E 005°19'0 0.0
2014-Jul-16 13:29N 60°24' E 005°19'0 0.0
2014-Jul-16 12:29N 60°24' E 005°19'0 0.0
2014-Jul-16 11:29N 60°24' E 005°19'0 0.0
2014-Jul-16 10:29N 60°24' E 005°19'0 0.0
2014-Jul-16 09:29N 60°24' E 005°19'0 0.0
2014-Jul-16 08:29N 60°24' E 005°19'0 0.0
2014-Jul-16 07:29N 60°24' E 005°19'0 0.0
2014-Jul-16 06:29N 60°24' E 005°19'0 0.0
2014-Jul-16 05:30N 60°24' E 005°19'7 7.0
2014-Jul-16 04:33N 60°25' E 005°06'  
Track history (hours):
 
Tides and Currents Weather Stations Pressure Air Temp Water Temp Dewpoint Dewpoint Depression Visibility Wind Speed Wind Dir Waves Ship Positions

Costa Luminosa

Last reported at 2014-Jul-24 16:33 UTC. Time now 2014-Jul-24 16:57 UTC.
Position N 59°26' E 022°23'.

Length 294 m; draft 8.1 m.

Type: Passenger vessel. MMSI: 247257900.

Date/timePositionNaut miles runAvg speedWind from/ knotsBaromVisibWave heightAir tempDewpointWater temp
2014-Jul-24 16:33N 59°26' E 022°23'1818.3
2014-Jul-24 15:33N 59°34' E 022°56'1918.9
2014-Jul-24 14:33N 59°39' E 023°32'1918.8
2014-Jul-24 13:33N 59°44' E 024°07'2020.0
2014-Jul-24 12:33N 59°51' E 024°45'1514.8
2014-Jul-24 11:33N 60°05' E 024°54'4 3.5
2014-Jul-24 10:32N 60°09' E 024°55'0 0.0
2014-Jul-24 09:32N 60°09' E 024°55'0 0.0
2014-Jul-24 08:32N 60°09' E 024°55'0 0.0
2014-Jul-24 07:32N 60°09' E 024°55'0 0.0
2014-Jul-24 06:32N 60°09' E 024°55'0 0.0
2014-Jul-24 05:32N 60°09' E 024°55'0 0.0
2014-Jul-24 04:32N 60°09' E 024°55'5 5.4
2014-Jul-24 03:33N 60°04' E 024°53'1313.5
2014-Jul-24 02:34N 59°56' E 025°16'1817.5
2014-Jul-24 01:33N 59°55' E 025°51'1817.8
2014-Jul-24 00:34N 59°60' E 026°25'1414.1
2014-Jul-23 23:34N 59°60' E 026°53'1413.4
2014-Jul-23 22:33N 60°04' E 027°19'8311.9
2014-Jul-23 15:33N 59°56' E 030°05'3 3.1
2014-Jul-23 14:31N 59°57' E 030°11'0 0.0
2014-Jul-23 13:31N 59°57' E 030°11'0 0.0
2014-Jul-23 12:31N 59°57' E 030°11'0 0.0
2014-Jul-23 11:31N 59°57' E 030°11'0 0.0
2014-Jul-23 10:31N 59°57' E 030°11'0 0.0
2014-Jul-23 09:31N 59°57' E 030°11'0 0.0
2014-Jul-23 08:31N 59°57' E 030°11'0 0.0
2014-Jul-23 07:31N 59°57' E 030°11'0 0.0
2014-Jul-23 06:31N 59°57' E 030°11'0 0.0
2014-Jul-23 05:33N 59°57' E 030°11'0 0.0
2014-Jul-23 04:31N 59°57' E 030°11'0 0.0
2014-Jul-23 03:31N 59°57' E 030°11'0 0.1
2014-Jul-23 02:33N 59°57' E 030°11'7 7.3
2014-Jul-23 01:33N 59°56' E 029°57'7414.8
2014-Jul-22 20:33N 60°06' E 027°30'1616.2
2014-Jul-22 19:34N 59°58' E 027°02'1616.4
2014-Jul-22 18:33N 59°58' E 026°29'1816.8
2014-Jul-22 17:29N 59°53' E 025°55'1816.5
2014-Jul-22 16:25N 59°49' E 025°20'1416.2
2014-Jul-22 15:33N 59°45' E 024°54'1414.0
2014-Jul-22 14:33N 59°32' E 024°44'4 0.7
2014-Jul-22 08:18N 59°27' E 024°46'8 8.6
2014-Jul-22 07:22N 59°30' E 024°30'1214.7
2014-Jul-22 06:33N 59°30' E 024°07'1616.4
2014-Jul-22 05:33N 59°29' E 023°35'1616.2
2014-Jul-22 04:33N 59°29' E 023°03'5014.8
2014-Jul-22 01:12N 59°24' E 021°26'4214.5
2014-Jul-21 22:16N 59°33' E 020°04'18 0.9
2014-Jul-21 01:22N 59°48' E 019°45'1619.0
2014-Jul-21 00:30N 59°36' E 020°08'1819.5
2014-Jul-20 23:33N 59°18' E 020°00'9421.1
2014-Jul-20 19:05N 57°60' E 018°19'1220.9
2014-Jul-20 18:31N 57°49' E 018°09'2021.0
2014-Jul-20 17:33N 57°31' E 017°52'2120.7
2014-Jul-20 16:33N 57°12' E 017°38'2121.2
2014-Jul-20 15:33N 56°52' E 017°23'2121.3
2014-Jul-20 14:33N 56°33' E 017°10'2120.9
2014-Jul-20 13:33N 56°13' E 016°56'1919.3
2014-Jul-20 12:33N 55°59' E 016°33'2020.3
2014-Jul-20 11:33N 55°49' E 016°02'2020.4
2014-Jul-20 10:34N 55°39' E 015°30'2020.3
2014-Jul-20 09:34N 55°28' E 014°60'2020.0
2014-Jul-20 08:33N 55°18' E 014°30'2020.4
2014-Jul-20 07:33N 55°02' E 014°07'2020.2
2014-Jul-20 06:33N 54°55' E 013°33'2020.0
2014-Jul-20 05:33N 54°49' E 013°01'1919.1
2014-Jul-20 04:33N 54°41' E 012°30'1818.5
2014-Jul-20 03:33N 54°26' E 012°11'1818.4
2014-Jul-20 02:33N 54°27' E 011°39'1919.2
2014-Jul-20 01:33N 54°35' E 011°10'1616.5
2014-Jul-20 00:33N 54°48' E 010°52'1817.5
2014-Jul-19 23:33N 55°05' E 011°02'1717.4
2014-Jul-19 22:33N 55°22' E 011°02'1818.3
2014-Jul-19 21:33N 55°38' E 010°46'2518.1
2014-Jul-19 20:10N 56°02' E 011°04'1117.5
2014-Jul-19 19:33N 56°07' E 011°21'2020.0
2014-Jul-19 18:34N 56°10' E 011°56'1919.2
2014-Jul-19 17:33N 56°08' E 012°30'1818.1
2014-Jul-19 16:33N 55°52' E 012°45'10 9.6
2014-Jul-19 15:32N 55°43' E 012°37'0 0.0
2014-Jul-19 14:32N 55°43' E 012°37'0 0.0
2014-Jul-19 13:31N 55°43' E 012°37'0 0.0
2014-Jul-19 12:31N 55°43' E 012°37'0 0.0
2014-Jul-19 11:32N 55°43' E 012°37'0 0.0
2014-Jul-19 10:32N 55°43' E 012°37'0 0.0
2014-Jul-19 09:31N 55°43' E 012°37'0 0.0
2014-Jul-19 08:32N 55°43' E 012°37'0 0.0
2014-Jul-19 07:32N 55°43' E 012°37'0 0.0
2014-Jul-19 06:32N 55°43' E 012°37'3 2.8
2014-Jul-19 05:34N 55°45' E 012°41'1110.7
2014-Jul-19 04:33N 55°55' E 012°38'1110.8
2014-Jul-19 03:34N 56°06' E 012°33'1312.6
2014-Jul-19 02:33N 56°13' E 012°15'1312.5
2014-Jul-19 01:33N 56°23' E 012°01'1313.1
2014-Jul-19 00:33N 56°36' E 011°56'1413.6
2014-Jul-18 23:33N 56°49' E 011°49'1515.1
2014-Jul-18 22:33N 57°03' E 011°40'1616.4
2014-Jul-18 21:34N 57°19' E 011°30'1616.4
2014-Jul-18 20:34N 57°34' E 011°18'1716.7
2014-Jul-18 19:34N 57°49' E 011°06'1716.8
2014-Jul-18 18:34N 58°05' E 010°54'1716.1
2014-Jul-18 17:31N 58°20' E 010°43'1716.1
2014-Jul-18 16:28N 58°37' E 010°36'3014.5
2014-Jul-18 14:23N 59°07' E 010°35'1416.7
2014-Jul-18 13:33N 59°21' E 010°35'3215.6
2014-Jul-18 11:31N 59°52' E 010°39'3 2.7
2014-Jul-18 10:25N 59°54' E 010°43'0 0.0
2014-Jul-18 09:25N 59°54' E 010°43'0 0.0
2014-Jul-18 08:25N 59°54' E 010°43'0 0.0
2014-Jul-18 07:31N 59°54' E 010°43'0 0.0
2014-Jul-18 06:31N 59°54' E 010°43'1 0.6
2014-Jul-18 05:33N 59°54' E 010°42'2211.2
2014-Jul-18 03:33N 59°32' E 010°36'1717.2
2014-Jul-18 02:33N 59°14' E 010°37'1313.1
2014-Jul-18 01:33N 59°01' E 010°34'1212.2
2014-Jul-18 00:33N 58°52' E 010°18'1412.5
2014-Jul-17 23:27N 58°43' E 009°58'3812.8
2014-Jul-17 20:31N 58°20' E 009°02'1212.5
2014-Jul-17 19:33N 58°12' E 008°44'1312.7
2014-Jul-17 18:33N 58°04' E 008°25'11 1.2
2014-Jul-17 09:33N 58°04' E 008°05'1513.5
2014-Jul-17 08:29N 57°57' E 007°41'4013.6
2014-Jul-17 05:33N 58°03' E 006°26'1615.8
2014-Jul-17 04:33N 58°13' E 006°04'1615.7
2014-Jul-17 03:33N 58°24' E 005°42'1615.8
2014-Jul-17 02:33N 58°37' E 005°24'1615.7
2014-Jul-17 01:34N 58°51' E 005°10'1615.5
2014-Jul-17 00:33N 59°04' E 004°53'8510.2
2014-Jul-16 16:10N 60°29' E 004°59'812.8
2014-Jul-16 15:33N 60°23' E 005°10'4 4.2
2014-Jul-16 14:29N 60°24' E 005°19'0 0.0
2014-Jul-16 13:29N 60°24' E 005°19'0 0.0
2014-Jul-16 12:29N 60°24' E 005°19'0 0.0
2014-Jul-16 11:29N 60°24' E 005°19'0 0.0
2014-Jul-16 10:29N 60°24' E 005°19'0 0.0
2014-Jul-16 09:29N 60°24' E 005°19'0 0.0
2014-Jul-16 08:29N 60°24' E 005°19'0 0.0
2014-Jul-16 07:29N 60°24' E 005°19'0 0.0
2014-Jul-16 06:29N 60°24' E 005°19'0 0.0
2014-Jul-16 05:30N 60°24' E 005°19'7 7.0
2014-Jul-16 04:33N 60°25' E 005°06'  

Dump ship's entire track history